Time;durP1;ratioP1;P1;durP2;ratioP2;P2;SDS_P1;SDS_P2;PMS_P1;PMS_P2;Temp;Humidity;BMP_temperature;BMP_pressure;BME280_temperature;BME280_humidity;BME280_pressure;Samples;Min_cycle;Max_cycle;Signal;HPM_P1;HPM_P2
2023/09/05 00:00:01;;;;;;;;;;;18.60;61.00;;;;;;4991924;28;87198;-49
2023/09/05 00:02:26;;;;;;;;;;;18.60;61.10;;;;;;4990746;28;87594;-49
2023/09/05 00:04:55;;;;;;;;;;;18.60;61.30;;;;;;4991583;28;87032;-52
2023/09/05 00:07:21;;;;;;;;;;;18.60;61.20;;;;;;4990360;28;87087;-52
2023/09/05 00:09:46;;;;;;;;;;;18.50;61.20;;;;;;4993171;28;89282;-50
2023/09/05 00:12:12;;;;;;;;;;;18.50;61.50;;;;;;4990751;28;89254;-50
2023/09/05 00:14:37;;;;;;;;;;;18.60;61.50;;;;;;4994148;28;87181;-52
2023/09/05 00:17:03;;;;;;;;;;;18.50;61.40;;;;;;4992471;28;88278;-52
2023/09/05 00:19:29;;;;;;;;;;;18.50;61.90;;;;;;4990337;28;87098;-52
2023/09/05 00:21:54;;;;;;;;;;;18.50;61.50;;;;;;4991833;28;87511;-48
2023/09/05 00:24:27;;;;;;;;;;;18.50;61.70;;;;;;4990704;28;87972;-48
2023/09/05 00:26:57;;;;;;;;;;;18.50;61.80;;;;;;4994390;28;87160;-50
2023/09/05 00:29:23;;;;;;;;;;;18.50;61.50;;;;;;4994668;28;87994;-49
2023/09/05 00:31:49;;;;;;;;;;;18.50;62.00;;;;;;4993945;28;88521;-53
2023/09/05 00:34:15;;;;;;;;;;;18.50;62.10;;;;;;4993764;28;87152;-50
2023/09/05 00:36:41;;;;;;;;;;;18.50;62.20;;;;;;4997428;28;88534;-48
2023/09/05 00:39:06;;;;;;;;;;;18.50;61.90;;;;;;4995789;28;87110;-48
2023/09/05 00:41:35;;;;;;;;;;;18.50;62.30;;;;;;4993826;28;88109;-51
2023/09/05 00:44:01;;;;;;;;;;;18.50;62.40;;;;;;4995208;28;87955;-48
2023/09/05 00:46:28;;;;;;;;;;;18.50;62.40;;;;;;4992978;28;88108;-48
2023/09/05 00:48:57;;;;;;;;;;;18.50;62.50;;;;;;4995661;28;87440;-51
2023/09/05 00:51:25;;;;;;;;;;;18.40;62.60;;;;;;4994736;28;89535;-50
2023/09/05 00:53:51;;;;;;;;;;;18.40;62.50;;;;;;4996736;28;87048;-48
2023/09/05 00:56:17;;;;;;;;;;;18.40;62.90;;;;;;4994534;28;87033;-52
2023/09/05 00:58:42;;;;;;;;;;;18.40;63.10;;;;;;4996993;28;87720;-50
2023/09/05 01:01:08;;;;;;;;;;;18.40;62.90;;;;;;4992581;28;88033;-50
2023/09/05 01:03:34;;;;;;;;;;;18.40;62.90;;;;;;4993993;28;88504;-53
2023/09/05 01:06:04;;;;;;;;;;;18.40;62.80;;;;;;4994264;28;87519;-47
2023/09/05 01:08:38;;;;;;;;;;;18.40;63.00;;;;;;4993758;28;87586;-47
2023/09/05 01:11:08;;;;;;;;;;;18.40;62.80;;;;;;4994432;28;87366;-50
2023/09/05 01:13:37;;;;;;;;;;;18.40;62.90;;;;;;4993765;28;87413;-49
2023/09/05 01:16:03;;;;;;;;;;;18.40;63.00;;;;;;4997048;28;87720;-50
2023/09/05 01:18:33;;;;;;;;;;;18.40;63.00;;;;;;4992241;28;87814;-53
2023/09/05 01:21:04;;;;;;;;;;;18.40;62.80;;;;;;4997866;28;87505;-50
2023/09/05 01:23:33;;;;;;;;;;;18.40;63.00;;;;;;4992645;28;87065;-50
2023/09/05 01:25:59;;;;;;;;;;;18.30;62.90;;;;;;4993314;28;87964;-48
2023/09/05 01:28:26;;;;;;;;;;;18.30;62.80;;;;;;4995905;28;87703;-53
2023/09/05 01:30:53;;;;;;;;;;;18.30;62.90;;;;;;4993534;28;89884;-52
2023/09/05 01:33:18;;;;;;;;;;;18.40;63.10;;;;;;4993058;28;87121;-50
2023/09/05 01:35:44;;;;;;;;;;;18.30;62.60;;;;;;4992581;28;87626;-53
2023/09/05 01:38:09;;;;;;;;;;;18.30;63.30;;;;;;4995732;28;88353;-50
2023/09/05 01:40:35;;;;;;;;;;;18.30;63.10;;;;;;4996274;28;87091;-50
2023/09/05 01:43:01;;;;;;;;;;;18.30;63.10;;;;;;4995444;28;87825;-46
2023/09/05 01:45:26;;;;;;;;;;;18.30;63.10;;;;;;4995403;28;87165;-51
2023/09/05 01:47:52;;;;;;;;;;;18.30;63.10;;;;;;4992189;28;88187;-54
2023/09/05 01:50:18;;;;;;;;;;;18.30;62.90;;;;;;4995354;28;88985;-50
2023/09/05 01:52:43;;;;;;;;;;;18.30;63.30;;;;;;4991356;28;87182;-48
2023/09/05 01:55:09;;;;;;;;;;;18.30;63.10;;;;;;4995240;28;86950;-51
2023/09/05 01:57:34;;;;;;;;;;;18.30;63.00;;;;;;4992368;28;88502;-51
2023/09/05 02:00:00;;;;;;;;;;;18.20;63.10;;;;;;4994248;28;87120;-49
2023/09/05 02:02:25;;;;;;;;;;;18.30;63.30;;;;;;4995675;28;88167;-49
2023/09/05 02:04:51;;;;;;;;;;;18.20;63.10;;;;;;4992661;28;87618;-52
2023/09/05 02:07:18;;;;;;;;;;;18.20;63.00;;;;;;4994436;28;87905;-54
2023/09/05 02:09:44;;;;;;;;;;;18.20;63.10;;;;;;4995178;28;88155;-50
2023/09/05 02:12:09;;;;;;;;;;;18.20;63.00;;;;;;4994426;28;87263;-48
2023/09/05 02:14:36;;;;;;;;;;;18.20;63.10;;;;;;4993517;28;88701;-52
2023/09/05 02:17:02;;;;;;;;;;;18.20;63.00;;;;;;4993047;28;88516;-47
2023/09/05 02:19:28;;;;;;;;;;;18.30;63.20;;;;;;4994162;28;87892;-51
2023/09/05 02:21:54;;;;;;;;;;;18.20;62.70;;;;;;4991239;28;87390;-49
2023/09/05 02:24:20;;;;;;;;;;;18.20;62.80;;;;;;4996066;28;89630;-47
2023/09/05 02:26:46;;;;;;;;;;;18.20;62.90;;;;;;5000667;28;90828;-48
2023/09/05 02:29:11;;;;;;;;;;;18.20;62.60;;;;;;4991066;28;88120;-50
2023/09/05 02:31:37;;;;;;;;;;;18.20;63.00;;;;;;4996180;28;86534;-52
2023/09/05 02:34:02;;;;;;;;;;;18.20;62.70;;;;;;4991114;28;86940;-48
2023/09/05 02:36:30;;;;;;;;;;;18.20;62.80;;;;;;5001016;28;91652;-49
2023/09/05 02:38:58;;;;;;;;;;;18.20;62.80;;;;;;4991674;28;88217;-49
2023/09/05 02:41:23;;;;;;;;;;;18.20;62.80;;;;;;4993317;28;88539;-51
2023/09/05 02:43:49;;;;;;;;;;;18.10;62.70;;;;;;4994084;28;88189;-50
2023/09/05 02:46:15;;;;;;;;;;;18.10;62.90;;;;;;4994827;28;87177;-47
2023/09/05 02:48:41;;;;;;;;;;;18.10;62.80;;;;;;4990519;28;88317;-49
2023/09/05 02:51:08;;;;;;;;;;;18.10;63.00;;;;;;4999034;28;87125;-52
2023/09/05 02:53:34;;;;;;;;;;;18.10;62.70;;;;;;4996763;28;87622;-51
2023/09/05 02:55:59;;;;;;;;;;;18.10;63.40;;;;;;4990250;28;88717;-50
2023/09/05 02:58:30;;;;;;;;;;;18.10;62.70;;;;;;4994337;28;87103;-48
2023/09/05 03:01:10;;;;;;;;;;;18.10;62.90;;;;;;4990308;28;89542;-52
2023/09/05 03:03:35;;;;;;;;;;;18.10;63.30;;;;;;4989760;28;89516;-49
2023/09/05 03:06:08;;;;;;;;;;;18.10;62.60;;;;;;4992955;28;87068;-51
2023/09/05 03:08:34;;;;;;;;;;;18.10;62.60;;;;;;4995024;28;87667;-48
2023/09/05 03:11:00;;;;;;;;;;;18.10;62.70;;;;;;4992500;28;87117;-51
2023/09/05 03:13:25;;;;;;;;;;;18.10;62.60;;;;;;4994110;28;87454;-49
2023/09/05 03:15:54;;;;;;;;;;;18.10;62.50;;;;;;4991548;28;88059;-51
2023/09/05 03:18:19;;;;;;;;;;;18.10;62.50;;;;;;4992892;28;87159;-50
2023/09/05 03:20:46;;;;;;;;;;;18.00;62.70;;;;;;4993208;28;87611;-49
2023/09/05 03:23:12;;;;;;;;;;;18.00;62.50;;;;;;4990540;28;88302;-53
2023/09/05 03:25:37;;;;;;;;;;;18.00;62.50;;;;;;4993988;28;87155;-49
2023/09/05 03:28:03;;;;;;;;;;;18.10;62.60;;;;;;4993253;28;88066;-46
2023/09/05 03:30:28;;;;;;;;;;;18.00;62.70;;;;;;4993143;28;87121;-49
2023/09/05 03:32:54;;;;;;;;;;;18.00;62.70;;;;;;4993443;28;90767;-51
2023/09/05 03:35:20;;;;;;;;;;;18.00;62.60;;;;;;4993234;28;89793;-49
2023/09/05 03:37:45;;;;;;;;;;;18.00;62.50;;;;;;4991884;28;87150;-52
2023/09/05 03:40:12;;;;;;;;;;;18.00;62.50;;;;;;4994597;28;87128;-50
2023/09/05 03:42:38;;;;;;;;;;;18.00;62.80;;;;;;4990480;28;89701;-50
2023/09/05 03:45:04;;;;;;;;;;;18.00;62.70;;;;;;4991229;28;86416;-51
2023/09/05 03:47:29;;;;;;;;;;;18.00;62.70;;;;;;4994084;28;87289;-51
2023/09/05 03:49:55;;;;;;;;;;;18.00;62.80;;;;;;4994952;28;88128;-51
2023/09/05 03:52:20;;;;;;;;;;;18.00;63.10;;;;;;4989540;28;88021;-50
2023/09/05 03:54:46;;;;;;;;;;;18.00;63.10;;;;;;4992358;28;88157;-50
2023/09/05 03:57:12;;;;;;;;;;;18.00;63.00;;;;;;4993541;28;87201;-52
2023/09/05 03:59:38;;;;;;;;;;;18.00;62.80;;;;;;4991782;28;87023;-50
2023/09/05 04:02:03;;;;;;;;;;;18.00;63.30;;;;;;4992056;28;88800;-51
2023/09/05 04:04:29;;;;;;;;;;;18.00;63.30;;;;;;4993061;28;87213;-49
2023/09/05 04:06:54;;;;;;;;;;;17.90;63.10;;;;;;4990282;28;87747;-53
2023/09/05 04:09:20;;;;;;;;;;;17.90;63.00;;;;;;4996998;28;88216;-50
2023/09/05 04:11:45;;;;;;;;;;;18.00;63.30;;;;;;4995072;28;87092;-48
2023/09/05 04:14:11;;;;;;;;;;;17.90;63.10;;;;;;4992150;28;88191;-50
2023/09/05 04:16:36;;;;;;;;;;;17.90;63.30;;;;;;4990377;28;89174;-52
2023/09/05 04:19:02;;;;;;;;;;;17.90;63.30;;;;;;4991694;28;88429;-49
2023/09/05 04:21:27;;;;;;;;;;;17.90;63.30;;;;;;4998886;28;91182;-53
2023/09/05 04:23:53;;;;;;;;;;;17.90;63.00;;;;;;4991226;28;87148;-52
2023/09/05 04:26:19;;;;;;;;;;;17.90;63.60;;;;;;4993094;28;87615;-53
2023/09/05 04:28:44;;;;;;;;;;;17.90;63.70;;;;;;4989038;28;87360;-48
2023/09/05 04:31:10;;;;;;;;;;;17.90;63.90;;;;;;4994074;28;87204;-49
2023/09/05 04:33:40;;;;;;;;;;;17.90;64.10;;;;;;4994935;28;87481;-53
2023/09/05 04:36:08;;;;;;;;;;;17.90;64.00;;;;;;4990326;28;87892;-48
2023/09/05 04:38:34;;;;;;;;;;;17.90;64.20;;;;;;4989546;28;87741;-53
2023/09/05 04:41:01;;;;;;;;;;;17.90;64.30;;;;;;4991803;28;90412;-53
2023/09/05 04:43:26;;;;;;;;;;;17.90;64.20;;;;;;4994656;28;87188;-53
2023/09/05 04:45:54;;;;;;;;;;;17.90;64.30;;;;;;4990410;28;87088;-48
2023/09/05 04:48:19;;;;;;;;;;;17.90;64.30;;;;;;4989565;28;89533;-48
2023/09/05 04:50:45;;;;;;;;;;;17.90;64.30;;;;;;4993166;28;87098;-51
2023/09/05 04:53:10;;;;;;;;;;;17.90;64.20;;;;;;4986232;28;88601;-51
2023/09/05 04:55:36;;;;;;;;;;;17.80;64.40;;;;;;4987213;28;89417;-49
2023/09/05 04:58:01;;;;;;;;;;;17.80;64.40;;;;;;4993042;28;87519;-50
2023/09/05 05:00:27;;;;;;;;;;;17.80;64.50;;;;;;4991070;28;88517;-50
2023/09/05 05:02:52;;;;;;;;;;;17.80;64.40;;;;;;4988633;28;88137;-51
2023/09/05 05:05:18;;;;;;;;;;;17.80;64.30;;;;;;4988225;28;88064;-53
2023/09/05 05:07:44;;;;;;;;;;;17.80;65.20;;;;;;4992246;28;88675;-49
2023/09/05 05:10:12;;;;;;;;;;;17.80;65.00;;;;;;4993982;28;87139;-50
2023/09/05 05:12:38;;;;;;;;;;;17.80;64.60;;;;;;4990256;28;87565;-50
2023/09/05 05:15:03;;;;;;;;;;;17.80;64.80;;;;;;4994871;28;87912;-52
2023/09/05 05:17:30;;;;;;;;;;;17.80;64.60;;;;;;4996520;28;87109;-50
2023/09/05 05:19:56;;;;;;;;;;;17.80;64.80;;;;;;4991153;28;89808;-50
2023/09/05 05:22:22;;;;;;;;;;;17.80;64.80;;;;;;4991761;28;86421;-47
2023/09/05 05:24:48;;;;;;;;;;;17.80;64.80;;;;;;4992216;28;87321;-51
2023/09/05 05:27:13;;;;;;;;;;;17.80;64.90;;;;;;4996465;28;89468;-51
2023/09/05 05:29:39;;;;;;;;;;;17.80;64.80;;;;;;4993918;28;88836;-51
2023/09/05 05:32:04;;;;;;;;;;;17.80;64.80;;;;;;4993994;28;88974;-50
2023/09/05 05:34:31;;;;;;;;;;;17.80;64.90;;;;;;4992305;28;88077;-51
2023/09/05 05:36:56;;;;;;;;;;;17.80;64.90;;;;;;5000793;28;87184;-52
2023/09/05 05:39:24;;;;;;;;;;;17.80;64.90;;;;;;4989609;28;89028;-46
2023/09/05 05:41:49;;;;;;;;;;;17.80;65.20;;;;;;4991255;28;87534;-48
2023/09/05 05:44:15;;;;;;;;;;;17.80;65.20;;;;;;4993050;28;87095;-50
2023/09/05 05:46:41;;;;;;;;;;;17.80;65.30;;;;;;4996222;28;87496;-51
2023/09/05 05:49:08;;;;;;;;;;;17.70;65.30;;;;;;4990951;28;88535;-48
2023/09/05 05:51:35;;;;;;;;;;;17.70;65.50;;;;;;4991876;28;87107;-53
2023/09/05 05:54:01;;;;;;;;;;;17.70;65.50;;;;;;4994938;28;89352;-52
2023/09/05 05:56:27;;;;;;;;;;;17.80;65.70;;;;;;4993638;28;87199;-47
2023/09/05 05:58:52;;;;;;;;;;;17.80;65.60;;;;;;4997184;28;87605;-48
2023/09/05 06:01:18;;;;;;;;;;;17.80;65.60;;;;;;4991834;28;87199;-49
2023/09/05 06:03:44;;;;;;;;;;;17.80;66.00;;;;;;4994324;28;87571;-48
2023/09/05 06:06:09;;;;;;;;;;;17.70;65.80;;;;;;4987896;28;88654;-52
2023/09/05 06:08:35;;;;;;;;;;;17.70;65.70;;;;;;4993120;28;87271;-48
2023/09/05 06:11:00;;;;;;;;;;;17.70;65.80;;;;;;4993896;28;87393;-50
2023/09/05 06:13:26;;;;;;;;;;;17.70;65.70;;;;;;4995249;28;88152;-50
2023/09/05 06:15:51;;;;;;;;;;;17.70;65.60;;;;;;4991204;28;88245;-52
2023/09/05 06:18:17;;;;;;;;;;;17.70;65.30;;;;;;4989447;28;88704;-50
2023/09/05 06:20:42;;;;;;;;;;;17.80;65.50;;;;;;4994947;28;88189;-52
2023/09/05 06:23:08;;;;;;;;;;;17.70;65.90;;;;;;4995727;28;87721;-52
2023/09/05 06:25:33;;;;;;;;;;;17.70;65.80;;;;;;4994559;28;88243;-52
2023/09/05 06:27:59;;;;;;;;;;;17.70;65.80;;;;;;4989090;28;87050;-50
2023/09/05 06:30:24;;;;;;;;;;;17.70;66.00;;;;;;4994887;28;87535;-52
2023/09/05 06:32:50;;;;;;;;;;;17.80;66.10;;;;;;4993763;28;88764;-51
2023/09/05 06:35:16;;;;;;;;;;;17.70;66.10;;;;;;4993008;28;86417;-48
2023/09/05 06:37:42;;;;;;;;;;;17.70;65.60;;;;;;4991190;28;87167;-50
2023/09/05 06:40:12;;;;;;;;;;;17.70;66.20;;;;;;4992496;28;88356;-47
2023/09/05 06:42:42;;;;;;;;;;;17.70;66.00;;;;;;4994516;28;88064;-51
2023/09/05 06:45:08;;;;;;;;;;;17.70;65.80;;;;;;4991693;28;88041;-51
2023/09/05 06:47:34;;;;;;;;;;;17.70;65.90;;;;;;4993839;28;87233;-52
2023/09/05 06:49:59;;;;;;;;;;;17.70;66.10;;;;;;4993715;28;87703;-53
2023/09/05 06:52:25;;;;;;;;;;;17.70;66.10;;;;;;4989391;28;88349;-52
2023/09/05 06:54:50;;;;;;;;;;;17.70;66.40;;;;;;4989979;28;87252;-47
2023/09/05 06:57:16;;;;;;;;;;;17.70;65.90;;;;;;4990794;28;87655;-49
2023/09/05 06:59:42;;;;;;;;;;;17.70;65.80;;;;;;4992789;28;87404;-46
2023/09/05 07:02:08;;;;;;;;;;;17.70;65.90;;;;;;4990905;28;88999;-50
2023/09/05 07:04:34;;;;;;;;;;;17.70;66.10;;;;;;4993362;28;88655;-51
2023/09/05 07:07:03;;;;;;;;;;;17.70;66.10;;;;;;4992676;28;88472;-47
2023/09/05 07:09:29;;;;;;;;;;;17.70;66.60;;;;;;4992390;28;89639;-52
2023/09/05 07:11:54;;;;;;;;;;;17.70;66.00;;;;;;4985450;28;88066;-49
2023/09/05 07:14:20;;;;;;;;;;;17.70;66.20;;;;;;4996963;28;87932;-47
2023/09/05 07:16:45;;;;;;;;;;;17.70;66.10;;;;;;4991327;28;88059;-52
2023/09/05 07:19:11;;;;;;;;;;;17.70;65.90;;;;;;4990326;28;88011;-53
2023/09/05 07:21:40;;;;;;;;;;;17.70;66.00;;;;;;4991367;28;87994;-47
2023/09/05 07:24:13;;;;;;;;;;;17.70;66.00;;;;;;4994929;28;88907;-51
2023/09/05 07:26:39;;;;;;;;;;;17.70;66.10;;;;;;4995983;28;88231;-48
2023/09/05 07:29:05;;;;;;;;;;;17.70;66.20;;;;;;4994348;28;88893;-49
2023/09/05 07:31:31;;;;;;;;;;;17.80;66.50;;;;;;4990049;28;89180;-53
2023/09/05 07:33:57;;;;;;;;;;;17.70;66.20;;;;;;4993032;28;87106;-53
2023/09/05 07:36:23;;;;;;;;;;;17.70;66.20;;;;;;4990647;28;87165;-53
2023/09/05 07:38:49;;;;;;;;;;;17.80;66.20;;;;;;4991142;28;88120;-52
2023/09/05 07:41:14;;;;;;;;;;;17.70;66.40;;;;;;4986940;28;87244;-50
2023/09/05 07:43:40;;;;;;;;;;;17.70;66.30;;;;;;4993553;28;87638;-50
2023/09/05 07:46:05;;;;;;;;;;;17.70;66.10;;;;;;4994690;28;87270;-51
2023/09/05 07:48:31;;;;;;;;;;;17.70;66.20;;;;;;4986919;28;87563;-53
2023/09/05 07:51:05;;;;;;;;;;;17.70;66.80;;;;;;4993042;28;88386;-48
2023/09/05 07:53:32;;;;;;;;;;;17.70;66.90;;;;;;4989587;28;87154;-53
2023/09/05 07:55:57;;;;;;;;;;;17.70;66.20;;;;;;4995303;28;88096;-52
2023/09/05 07:58:23;;;;;;;;;;;17.60;66.60;;;;;;4991750;28;88284;-51
2023/09/05 08:00:49;;;;;;;;;;;17.70;67.20;;;;;;4990084;28;87578;-49
2023/09/05 08:03:16;;;;;;;;;;;17.70;67.20;;;;;;4990831;28;87572;-51
2023/09/05 08:05:41;;;;;;;;;;;17.70;66.50;;;;;;4993193;28;89520;-47
2023/09/05 08:08:07;;;;;;;;;;;17.70;66.60;;;;;;4994369;28;88263;-50
2023/09/05 08:10:33;;;;;;;;;;;17.60;66.90;;;;;;4990913;28;89616;-48
2023/09/05 08:12:59;;;;;;;;;;;17.70;67.10;;;;;;4993544;28;87148;-51
2023/09/05 08:15:25;;;;;;;;;;;17.70;67.10;;;;;;4991519;28;87990;-49
2023/09/05 08:17:51;;;;;;;;;;;17.60;66.40;;;;;;4987480;28;88766;-46
2023/09/05 08:20:17;;;;;;;;;;;17.60;66.70;;;;;;4990860;28;88109;-47
2023/09/05 08:22:44;;;;;;;;;;;17.60;66.70;;;;;;4991546;28;88289;-50
2023/09/05 08:25:10;;;;;;;;;;;17.60;66.70;;;;;;4985759;28;88489;-51
2023/09/05 08:27:35;;;;;;;;;;;17.70;67.60;;;;;;4989062;28;87165;-50
2023/09/05 08:30:01;;;;;;;;;;;17.60;66.70;;;;;;4995924;28;87285;-52
2023/09/05 08:32:28;;;;;;;;;;;17.60;66.90;;;;;;4987199;28;87711;-52
2023/09/05 08:34:54;;;;;;;;;;;17.70;67.60;;;;;;4991892;28;89405;-52
2023/09/05 08:37:20;;;;;;;;;;;17.70;66.70;;;;;;4997864;28;89699;-52
2023/09/05 08:39:46;;;;;;;;;;;17.70;66.60;;;;;;4995097;28;87112;-52
2023/09/05 08:42:11;;;;;;;;;;;17.60;66.80;;;;;;4990307;28;87598;-49
2023/09/05 08:44:38;;;;;;;;;;;17.60;66.80;;;;;;4992748;28;88752;-49
2023/09/05 08:47:05;;;;;;;;;;;17.60;67.10;;;;;;4997107;28;87233;-50
2023/09/05 08:49:31;;;;;;;;;;;17.60;68.30;;;;;;4995168;28;88848;-49
2023/09/05 08:52:00;;;;;;;;;;;17.80;68.50;;;;;;4996959;28;88154;-51
2023/09/05 08:54:25;;;;;;;;;;;17.80;68.50;;;;;;4994075;28;88655;-51
2023/09/05 08:56:51;;;;;;;;;;;17.90;67.80;;;;;;4995978;28;88190;-49
2023/09/05 08:59:17;;;;;;;;;;;17.80;68.30;;;;;;4995245;28;87136;-52
2023/09/05 09:01:44;;;;;;;;;;;17.80;67.70;;;;;;5000183;28;86582;-52
2023/09/05 09:04:09;;;;;;;;;;;17.80;67.00;;;;;;4996808;28;87352;-52
2023/09/05 09:06:35;;;;;;;;;;;17.70;67.00;;;;;;4995656;28;87056;-49
2023/09/05 09:09:03;;;;;;;;;;;17.70;67.30;;;;;;4994903;28;88875;-54
2023/09/05 09:11:29;;;;;;;;;;;17.70;67.10;;;;;;4992209;28;89490;-49
2023/09/05 09:13:58;;;;;;;;;;;17.70;67.30;;;;;;4996040;28;87601;-54
2023/09/05 09:16:24;;;;;;;;;;;17.70;66.90;;;;;;4992959;28;89914;-49
2023/09/05 09:18:58;;;;;;;;;;;17.60;67.10;;;;;;4997271;28;87143;-48
2023/09/05 09:21:25;;;;;;;;;;;17.70;67.30;;;;;;4994088;28;87251;-50
2023/09/05 09:23:51;;;;;;;;;;;17.70;66.30;;;;;;4991529;28;88536;-51
2023/09/05 09:26:16;;;;;;;;;;;17.80;67.80;;;;;;4994441;28;86424;-52
2023/09/05 09:28:42;;;;;;;;;;;17.80;68.90;;;;;;4993771;28;87150;-49
2023/09/05 09:31:10;;;;;;;;;;;17.80;68.60;;;;;;4992896;28;89060;-49
2023/09/05 09:33:37;;;;;;;;;;;17.90;68.90;;;;;;4991188;28;88460;-49
2023/09/05 09:36:12;;;;;;;;;;;17.90;68.80;;;;;;4999351;28;88887;-51
2023/09/05 09:38:38;;;;;;;;;;;17.90;68.50;;;;;;4992119;28;87135;-52
2023/09/05 09:41:06;;;;;;;;;;;17.90;68.80;;;;;;4996241;28;87830;-48
2023/09/05 09:43:32;;;;;;;;;;;17.90;67.70;;;;;;4994074;28;90012;-49
2023/09/05 09:45:59;;;;;;;;;;;17.90;68.70;;;;;;4995996;28;87125;-50
2023/09/05 09:48:26;;;;;;;;;;;17.90;68.40;;;;;;4992213;28;87954;-49
2023/09/05 09:50:53;;;;;;;;;;;17.90;68.60;;;;;;4992355;28;86610;-53
2023/09/05 09:53:22;;;;;;;;;;;17.90;68.40;;;;;;4995278;28;87219;-47
2023/09/05 09:55:51;;;;;;;;;;;17.90;67.70;;;;;;4996180;28;87413;-50
2023/09/05 09:58:18;;;;;;;;;;;17.90;67.90;;;;;;4990225;28;88075;-49
2023/09/05 10:00:46;;;;;;;;;;;17.90;67.80;;;;;;4988278;28;88096;-50
2023/09/05 10:03:13;;;;;;;;;;;17.90;68.80;;;;;;4994802;28;88198;-52
2023/09/05 10:05:41;;;;;;;;;;;18.00;67.70;;;;;;4995096;28;87176;-48
2023/09/05 10:08:09;;;;;;;;;;;17.90;67.60;;;;;;4995230;28;89168;-51
2023/09/05 10:10:38;;;;;;;;;;;17.90;67.20;;;;;;4994932;28;88376;-50
2023/09/05 10:13:05;;;;;;;;;;;18.00;66.60;;;;;;4994574;28;87120;-46
2023/09/05 10:15:30;;;;;;;;;;;17.90;67.40;;;;;;4992773;28;88196;-51
2023/09/05 10:17:56;;;;;;;;;;;18.00;67.30;;;;;;4994639;28;88026;-48
2023/09/05 10:20:25;;;;;;;;;;;18.00;67.80;;;;;;4992830;28;87445;-50
2023/09/05 10:22:53;;;;;;;;;;;18.00;67.60;;;;;;4994680;28;89071;-53
2023/09/05 10:25:20;;;;;;;;;;;17.90;68.00;;;;;;4988767;28;87128;-51
2023/09/05 10:27:45;;;;;;;;;;;18.00;67.20;;;;;;4996348;28;87455;-51
2023/09/05 10:30:11;;;;;;;;;;;18.00;68.00;;;;;;4991914;28;88694;-50
2023/09/05 10:32:40;;;;;;;;;;;17.90;66.90;;;;;;4995222;28;87318;-49
2023/09/05 10:35:05;;;;;;;;;;;17.90;67.80;;;;;;4993012;28;89544;-52
2023/09/05 10:37:34;;;;;;;;;;;18.00;67.00;;;;;;4989768;28;89422;-49
2023/09/05 10:40:07;;;;;;;;;;;18.00;67.90;;;;;;4997799;28;86275;-49
2023/09/05 10:42:33;;;;;;;;;;;18.00;66.30;;;;;;4992576;28;88295;-53
2023/09/05 10:45:15;;;;;;;;;;;18.00;67.10;;;;;;4990254;28;87427;-52
2023/09/05 10:47:40;;;;;;;;;;;18.00;67.30;;;;;;4993100;28;87974;-47
2023/09/05 10:50:07;;;;;;;;;;;18.00;67.30;;;;;;4992604;28;87686;-46
2023/09/05 10:52:33;;;;;;;;;;;18.00;66.80;;;;;;4989470;28;89049;-48
2023/09/05 10:55:18;;;;;;;;;;;17.90;66.80;;;;;;4990128;28;87597;-52
2023/09/05 10:57:47;;;;;;;;;;;17.80;66.70;;;;;;4993448;28;89622;-49
2023/09/05 11:00:15;;;;;;;;;;;17.80;67.20;;;;;;4992710;28;87199;-49
2023/09/05 11:02:41;;;;;;;;;;;17.70;67.90;;;;;;4989883;28;87831;-51
2023/09/05 11:05:11;;;;;;;;;;;17.70;68.10;;;;;;4991653;28;86440;-51
2023/09/05 11:07:42;;;;;;;;;;;17.70;68.20;;;;;;4990325;28;87216;-51
2023/09/05 11:10:24;;;;;;;;;;;17.70;68.40;;;;;;4991556;28;89781;-50
2023/09/05 11:12:50;;;;;;;;;;;17.70;68.40;;;;;;4988023;28;87962;-49
2023/09/05 11:15:28;;;;;;;;;;;17.60;68.50;;;;;;4990474;28;88842;-52
2023/09/05 11:18:00;;;;;;;;;;;17.60;68.70;;;;;;4994065;28;87781;-51
2023/09/05 11:20:39;;;;;;;;;;;17.60;68.70;;;;;;4990823;28;87920;-51
2023/09/05 11:23:14;;;;;;;;;;;17.60;68.60;;;;;;4987352;28;87108;-53
2023/09/05 11:25:50;;;;;;;;;;;17.60;68.40;;;;;;4994024;28;88188;-49
2023/09/05 11:28:16;;;;;;;;;;;17.60;68.10;;;;;;4992643;28;89265;-53
2023/09/05 11:30:45;;;;;;;;;;;17.60;68.00;;;;;;4990160;28;87563;-49
2023/09/05 11:33:15;;;;;;;;;;;17.60;68.40;;;;;;4990904;28;87169;-50
2023/09/05 11:35:41;;;;;;;;;;;17.60;68.30;;;;;;4991149;28;87712;-50
2023/09/05 11:38:07;;;;;;;;;;;17.70;68.10;;;;;;4992150;28;89943;-49
2023/09/05 11:40:33;;;;;;;;;;;17.70;68.30;;;;;;4992857;28;88141;-52
2023/09/05 11:43:03;;;;;;;;;;;17.60;68.20;;;;;;4994981;28;87027;-50
2023/09/05 11:45:30;;;;;;;;;;;17.70;68.10;;;;;;4992976;28;89535;-53
2023/09/05 11:47:56;;;;;;;;;;;17.70;68.00;;;;;;4991177;28;87233;-53
2023/09/05 11:50:22;;;;;;;;;;;17.70;68.00;;;;;;4989813;28;89117;-48
2023/09/05 11:52:51;;;;;;;;;;;17.70;68.00;;;;;;4987555;28;87459;-49
2023/09/05 11:55:17;;;;;;;;;;;17.60;67.80;;;;;;4993412;28;87810;-50
2023/09/05 11:57:43;;;;;;;;;;;17.70;68.10;;;;;;4992916;28;88173;-50
2023/09/05 12:00:12;;;;;;;;;;;17.70;68.10;;;;;;4990975;28;88088;-49
2023/09/05 12:02:37;;;;;;;;;;;17.70;68.00;;;;;;4991582;28;88067;-51
2023/09/05 12:05:06;;;;;;;;;;;17.70;68.10;;;;;;4993800;28;88160;-48
2023/09/05 12:07:31;;;;;;;;;;;17.70;68.00;;;;;;4994876;28;87406;-50
2023/09/05 12:09:58;;;;;;;;;;;17.70;67.80;;;;;;4989632;28;89126;-52
2023/09/05 12:12:23;;;;;;;;;;;17.70;67.90;;;;;;4990925;28;87252;-50
2023/09/05 12:14:53;;;;;;;;;;;17.70;67.70;;;;;;4999357;28;90055;-52
2023/09/05 12:17:20;;;;;;;;;;;17.70;67.70;;;;;;4994107;28;88208;-50
2023/09/05 12:19:47;;;;;;;;;;;17.70;67.60;;;;;;4989895;28;86499;-53
2023/09/05 12:22:22;;;;;;;;;;;17.80;67.40;;;;;;4995563;28;86999;-54
2023/09/05 12:24:47;;;;;;;;;;;17.80;67.40;;;;;;4994390;28;88175;-49
2023/09/05 12:27:23;;;;;;;;;;;17.80;67.70;;;;;;4994215;28;89023;-48
2023/09/05 12:29:49;;;;;;;;;;;17.80;67.50;;;;;;4996781;28;88915;-48
2023/09/05 12:32:15;;;;;;;;;;;17.70;67.50;;;;;;4994803;28;87016;-46
2023/09/05 12:34:43;;;;;;;;;;;17.80;67.40;;;;;;4989985;28;89394;-52
2023/09/05 12:37:08;;;;;;;;;;;17.80;67.50;;;;;;4995790;28;88171;-52
2023/09/05 12:39:34;;;;;;;;;;;17.80;67.50;;;;;;4995925;28;87167;-49
2023/09/05 12:41:59;;;;;;;;;;;17.80;67.50;;;;;;4998185;28;87537;-48
2023/09/05 12:44:29;;;;;;;;;;;17.80;67.50;;;;;;4993174;28;87682;-52
2023/09/05 12:46:55;;;;;;;;;;;17.90;67.60;;;;;;4992243;28;87223;-50
2023/09/05 12:49:20;;;;;;;;;;;17.90;67.50;;;;;;4995877;28;89447;-47
2023/09/05 12:51:46;;;;;;;;;;;17.90;67.50;;;;;;4995014;28;89128;-50
2023/09/05 12:54:13;;;;;;;;;;;17.90;67.60;;;;;;4992917;28;88463;-51
2023/09/05 12:56:39;;;;;;;;;;;17.90;67.40;;;;;;4992756;28;88644;-51
2023/09/05 12:59:05;;;;;;;;;;;17.90;67.40;;;;;;4994805;28;87088;-49
2023/09/05 13:01:31;;;;;;;;;;;17.90;67.30;;;;;;4997805;28;87914;-49
2023/09/05 13:03:57;;;;;;;;;;;17.90;67.10;;;;;;4992917;28;88707;-53
2023/09/05 13:06:22;;;;;;;;;;;18.00;67.20;;;;;;4995382;28;87138;-49
2023/09/05 13:08:48;;;;;;;;;;;18.00;66.90;;;;;;4997908;28;87714;-49
2023/09/05 13:11:15;;;;;;;;;;;18.00;67.70;;;;;;4990833;28;89970;-49
2023/09/05 13:13:42;;;;;;;;;;;18.00;67.10;;;;;;4994088;28;87566;-49
2023/09/05 13:16:08;;;;;;;;;;;18.00;67.00;;;;;;4991921;28;90805;-47
2023/09/05 13:18:33;;;;;;;;;;;18.00;66.80;;;;;;4997986;28;87362;-52
2023/09/05 13:20:59;;;;;;;;;;;18.00;66.60;;;;;;4995239;28;87514;-53
2023/09/05 13:23:24;;;;;;;;;;;18.10;66.60;;;;;;4994495;28;89613;-49
2023/09/05 13:25:50;;;;;;;;;;;18.10;66.60;;;;;;4994134;28;87358;-51
2023/09/05 13:28:16;;;;;;;;;;;18.10;66.50;;;;;;4996677;28;87917;-51
2023/09/05 13:30:41;;;;;;;;;;;18.10;66.30;;;;;;4989523;28;88393;-49
2023/09/05 13:33:09;;;;;;;;;;;18.10;66.20;;;;;;4994842;28;86395;-49
2023/09/05 13:35:36;;;;;;;;;;;18.10;66.30;;;;;;4998919;28;88401;-53
2023/09/05 13:38:01;;;;;;;;;;;18.10;66.30;;;;;;4994585;28;87809;-54
2023/09/05 13:40:30;;;;;;;;;;;18.10;66.30;;;;;;4991186;28;88135;-49
2023/09/05 13:42:55;;;;;;;;;;;18.10;66.30;;;;;;4991089;28;88350;-50
2023/09/05 13:45:21;;;;;;;;;;;18.10;66.20;;;;;;4994333;28;87432;-51
2023/09/05 13:47:47;;;;;;;;;;;18.10;66.20;;;;;;4991813;28;88655;-52
2023/09/05 13:50:15;;;;;;;;;;;18.20;66.10;;;;;;4995731;28;88248;-49
2023/09/05 13:52:41;;;;;;;;;;;18.20;66.20;;;;;;4991824;28;87127;-49
2023/09/05 13:55:07;;;;;;;;;;;18.20;66.20;;;;;;4998082;28;87617;-51
2023/09/05 13:57:33;;;;;;;;;;;18.20;66.20;;;;;;4993958;28;87769;-54
2023/09/05 13:59:59;;;;;;;;;;;18.20;66.20;;;;;;4996823;28;88517;-51
2023/09/05 14:02:25;;;;;;;;;;;18.20;66.20;;;;;;4992372;28;88346;-51
2023/09/05 14:04:52;;;;;;;;;;;18.30;66.20;;;;;;4995479;28;88225;-55
2023/09/05 14:07:17;;;;;;;;;;;18.30;66.10;;;;;;4986728;28;90426;-50
2023/09/05 14:09:43;;;;;;;;;;;18.30;66.10;;;;;;4989831;28;88354;-53
2023/09/05 14:12:09;;;;;;;;;;;18.30;66.00;;;;;;4994316;28;87100;-53